Time;durP1;ratioP1;P1;durP2;ratioP2;P2;SDS_P1;SDS_P2;PMS_P1;PMS_P2;Temp;Humidity;BMP_temperature;BMP_pressure;BME280_temperature;BME280_humidity;BME280_pressure;Samples;Min_cycle;Max_cycle;Signal;HPM_P1;HPM_P2
2021/11/12 00:13:43;;;;;;;18.70;10.30;;;;;;;-0.42;100.00;101073.98;1656907;86;21093;-76
2021/11/12 00:16:10;;;;;;;20.13;11.20;;;;;;;-0.43;100.00;101071.39;1664174;86;21099;-76
2021/11/12 00:18:38;;;;;;;19.20;11.40;;;;;;;-0.44;100.00;101063.89;1654877;86;21042;-75
2021/11/12 00:21:07;;;;;;;17.37;10.00;;;;;;;-0.44;100.00;101063.89;1648236;87;21143;-75
2021/11/12 00:23:35;;;;;;;17.90;10.70;;;;;;;-0.43;100.00;101062.94;1666091;86;21075;-73
2021/11/12 00:26:02;;;;;;;16.40;10.17;;;;;;;-0.43;100.00;101064.27;1653695;86;21044;-77
2021/11/12 00:28:34;;;;;;;18.37;11.23;;;;;;;-0.46;100.00;101065.77;1658562;82;21079;-77
2021/11/12 00:36:37;;;;;;;18.17;11.60;;;;;;;-0.48;100.00;101057.47;1645429;85;21061;-75
2021/11/12 00:39:07;;;;;;;19.33;11.40;;;;;;;-0.50;100.00;101052.22;1641849;85;21096;-76
2021/11/12 00:41:35;;;;;;;17.70;10.80;;;;;;;-0.51;100.00;101048.31;1640183;85;21140;-76
2021/11/12 00:44:15;;;;;;;18.20;10.80;;;;;;;-0.53;100.00;101042.22;1626973;88;21107;-75
2021/11/12 00:49:11;;;;;;;18.03;11.13;;;;;;;-0.56;100.00;101032.61;1627013;88;21059;-76
2021/11/12 00:54:08;;;;;;;18.63;11.50;;;;;;;-0.58;100.00;101028.70;1651583;84;21109;-74
2021/11/12 00:56:35;;;;;;;18.60;10.70;;;;;;;-0.58;100.00;101035.34;1689238;84;21057;-75
2021/11/12 00:59:04;;;;;;;19.33;11.63;;;;;;;-0.58;100.00;101035.34;1692448;84;21522;-75
2021/11/12 01:01:34;;;;;;;18.73;10.90;;;;;;;-0.58;100.00;101037.14;1617133;87;21598;-75
2021/11/12 01:04:03;;;;;;;17.03;10.07;;;;;;;-0.59;100.00;101038.06;1610531;88;21098;-75
2021/11/12 01:06:30;;;;;;;16.93;10.67;;;;;;;-0.58;100.00;101039.33;1609802;89;21063;-75
2021/11/12 01:08:58;;;;;;;20.77;11.80;;;;;;;-0.59;100.00;101037.59;1619091;87;21048;-76
2021/11/12 01:11:26;;;;;;;20.03;11.73;;;;;;;-0.58;100.00;101033.16;1612892;88;21072;-76
2021/11/12 01:13:53;;;;;;;18.30;11.13;;;;;;;-0.60;100.00;101026.59;1609756;89;21059;-76
2021/11/12 01:16:20;;;;;;;19.97;11.53;;;;;;;-0.57;100.00;101024.23;1612210;88;21087;-76
2021/11/12 01:18:47;;;;;;;18.37;11.07;;;;;;;-0.55;100.00;101017.52;1609734;89;21192;-75
2021/11/12 01:21:15;;;;;;;19.10;10.43;;;;;;;-0.54;100.00;101014.80;1609602;89;21091;-75
2021/11/12 01:23:45;;;;;;;19.10;12.17;;;;;;;-0.53;100.00;101013.88;1614574;88;21136;-75
2021/11/12 01:26:14;;;;;;;19.10;11.40;;;;;;;-0.53;100.00;101009.89;1609674;88;21574;-75
2021/11/12 01:28:42;;;;;;;20.20;11.97;;;;;;;-0.52;100.00;101013.39;1634269;83;21026;-75
2021/11/12 01:31:09;;;;;;;19.47;11.60;;;;;;;-0.51;100.00;101012.00;1726947;83;21117;-75
2021/11/12 01:33:38;;;;;;;20.37;12.07;;;;;;;-0.49;100.00;101007.94;1721353;83;21045;-75
2021/11/12 01:36:24;;;;;;;18.47;11.13;;;;;;;-0.47;100.00;101003.40;1750975;81;21054;-75
2021/11/12 01:38:41;;;;;;;21.57;11.73;;;;;;;-0.43;100.00;101003.63;1738528;82;21029;-75
2021/11/12 01:41:07;;;;;;;18.50;10.90;;;;;;;-0.37;100.00;100997.14;1740167;82;21078;-75
2021/11/12 01:43:41;;;;;;;20.27;12.40;;;;;;;-0.31;100.00;100991.53;1741891;82;21039;-75
2021/11/12 01:46:23;;;;;;;21.53;12.87;;;;;;;-0.25;100.00;100996.52;1736904;82;21477;-76
2021/11/12 01:49:09;;;;;;;21.20;12.40;;;;;;;-0.21;100.00;100996.77;1749710;81;21468;-76
2021/11/12 01:54:20;;;;;;;17.77;10.70;;;;;;;-0.13;100.00;100991.91;1712435;83;21020;-75
2021/11/12 01:59:08;;;;;;;20.33;12.03;;;;;;;-0.06;100.00;100993.30;1709067;82;21076;-74
2021/11/12 02:01:49;;;;;;;19.47;11.93;;;;;;;-0.01;100.00;101005.89;1688877;83;21045;-76
2021/11/12 02:04:28;;;;;;;20.53;11.70;;;;;;;0.02;100.00;100995.58;1637134;87;21050;-75
2021/11/12 02:06:56;;;;;;;18.43;11.40;;;;;;;0.04;100.00;100999.02;1638912;87;21065;-76
2021/11/12 02:09:23;;;;;;;17.43;11.10;;;;;;;0.05;100.00;100991.89;1640651;87;21093;-76
2021/11/12 02:11:55;;;;;;;17.20;10.80;;;;;;;0.05;100.00;100986.09;1640629;87;21107;-75
2021/11/12 02:14:22;;;;;;;21.93;12.43;;;;;;;0.06;100.00;100984.31;1639163;87;21516;-75
2021/11/12 02:17:06;;;;;;;19.13;10.90;;;;;;;0.05;100.00;100980.77;1638849;87;21568;-76
2021/11/12 02:19:33;;;;;;;19.20;11.40;;;;;;;0.07;100.00;100986.02;1614229;89;21081;-76
2021/11/12 02:22:06;;;;;;;19.07;11.43;;;;;;;0.08;100.00;100987.27;1614664;89;21077;-75
2021/11/12 02:24:34;;;;;;;21.10;12.03;;;;;;;0.10;100.00;100984.53;1617367;89;21129;-75
2021/11/12 02:27:02;;;;;;;20.37;11.60;;;;;;;0.12;100.00;100985.31;1618042;89;21112;-76
2021/11/12 02:29:30;;;;;;;21.37;11.90;;;;;;;0.13;100.00;100987.04;1613743;88;21054;-75
2021/11/12 02:31:57;;;;;;;19.97;11.43;;;;;;;0.16;100.00;100982.86;1636286;87;21070;-76
2021/11/12 02:34:25;;;;;;;18.97;10.17;;;;;;;0.19;100.00;100978.72;1641277;87;21048;-76
2021/11/12 02:36:54;;;;;;;19.17;11.13;;;;;;;0.20;100.00;100981.78;1637503;87;21056;-75
2021/11/12 02:39:20;;;;;;;18.60;10.80;;;;;;;0.22;100.00;100979.05;1668275;85;21085;-75
2021/11/12 02:41:47;;;;;;;19.40;10.90;;;;;;;0.24;100.00;100970.51;1665509;85;21064;-76
2021/11/12 02:44:14;;;;;;;19.03;11.03;;;;;;;0.27;100.00;100975.67;1660833;85;21092;-75
2021/11/12 02:46:40;;;;;;;19.13;10.83;;;;;;;0.30;100.00;100975.04;1659180;86;21515;-75
2021/11/12 02:49:08;;;;;;;19.60;10.73;;;;;;;0.32;100.00;100977.59;1659389;86;21535;-76
2021/11/12 02:51:36;;;;;;;19.00;11.00;;;;;;;0.34;100.00;100973.92;1659085;86;21053;-76
2021/11/12 02:54:06;;;;;;;18.97;11.00;;;;;;;0.35;100.00;100973.44;1681230;84;21116;-75
2021/11/12 02:56:33;;;;;;;19.40;10.30;;;;;;;0.34;100.00;100960.62;1691939;84;21069;-75
2021/11/12 02:59:07;;;;;;;17.90;10.40;;;;;;;0.37;100.00;100964.45;1693714;84;21092;-75
2021/11/12 03:01:44;;;;;;;18.77;11.00;;;;;;;0.40;100.00;100957.23;1694093;83;21585;-76
2021/11/12 03:04:13;;;;;;;19.00;10.27;;;;;;;0.38;100.00;100955.98;1694586;85;21059;-76
2021/11/12 03:06:40;;;;;;;19.27;11.07;;;;;;;0.39;100.00;100949.73;1696777;84;21142;-75
2021/11/12 03:09:07;;;;;;;18.37;10.30;;;;;;;0.42;100.00;100950.03;1694587;84;21074;-76
2021/11/12 03:11:37;;;;;;;16.70;9.80;;;;;;;0.42;100.00;100936.72;1688258;85;21063;-76
2021/11/12 03:14:06;;;;;;;16.67;9.57;;;;;;;0.41;100.00;100930.55;1686840;85;21048;-75
2021/11/12 03:16:35;;;;;;;16.20;9.50;;;;;;;0.41;100.00;100928.34;1681740;83;21017;-76
2021/11/12 03:19:04;;;;;;;17.03;9.20;;;;;;;0.41;100.00;100934.99;1724414;81;21275;-76
2021/11/12 03:21:32;;;;;;;18.57;10.10;;;;;;;0.37;100.00;100924.54;1739422;82;21563;-76
2021/11/12 03:24:04;;;;;;;16.77;10.17;;;;;;;0.36;100.00;100921.48;1754158;82;20979;-76
2021/11/12 04:01:55;;;;;;;14.63;8.30;;;;;;;0.41;100.00;100854.72;1727156;82;21030;-77
2021/11/12 04:04:27;;;;;;;15.63;8.60;;;;;;;0.42;100.00;100840.94;1750533;82;21094;-76
2021/11/12 05:09:38;;;;;;;13.93;8.57;;;;;;;0.71;100.00;100828.16;1755740;81;21502;-76
2021/11/12 05:46:42;;;;;;;17.87;9.23;;;;;;;1.30;100.00;100804.73;1600585;89;21091;-79
2021/11/12 05:57:17;;;;;;;15.20;8.00;;;;;;;1.37;100.00;100798.09;1603771;89;21110;-78
2021/11/12 05:59:45;;;;;;;14.80;8.10;;;;;;;1.40;100.00;100799.69;1609204;88;21110;-78
2021/11/12 06:02:12;;;;;;;16.03;8.73;;;;;;;1.43;100.00;100794.19;1636633;86;21044;-78
2021/11/12 06:04:39;;;;;;;15.50;8.10;;;;;;;1.48;100.00;100786.28;1636745;87;21033;-79
2021/11/12 06:07:06;;;;;;;16.00;8.37;;;;;;;1.53;100.00;100784.68;1637459;86;21061;-78
2021/11/12 06:09:34;;;;;;;16.23;8.93;;;;;;;1.61;100.00;100789.07;1632882;87;21150;-78
2021/11/12 06:12:02;;;;;;;19.63;9.33;;;;;;;1.69;100.00;100780.09;1636434;87;21198;-78
2021/11/12 06:14:29;;;;;;;19.53;9.67;;;;;;;1.74;100.00;100782.48;1635224;87;21523;-77
2021/11/12 06:16:57;;;;;;;16.43;8.50;;;;;;;1.80;100.00;100778.09;1633919;87;21081;-78
2021/11/12 06:19:24;;;;;;;14.13;7.37;;;;;;;1.88;100.00;100774.47;1633496;87;21021;-79
2021/11/12 06:21:52;;;;;;;19.00;9.67;;;;;;;1.94;100.00;100769.70;1633945;87;21139;-78
2021/11/12 06:24:19;;;;;;;18.40;9.17;;;;;;;1.98;100.00;100764.55;1640959;87;21057;-78
2021/11/12 06:26:46;;;;;;;16.00;8.40;;;;;;;2.05;100.00;100768.08;1634986;87;21022;-78
2021/11/12 06:29:13;;;;;;;20.00;9.77;;;;;;;2.09;100.00;100759.39;1632326;87;21037;-79
2021/11/12 06:31:41;;;;;;;19.90;10.07;;;;;;;2.10;100.00;100753.09;1634549;87;21057;-78
2021/11/12 06:34:07;;;;;;;17.87;9.37;;;;;;;2.13;100.00;100757.38;1633377;87;21041;-78
2021/11/12 06:36:34;;;;;;;18.93;9.53;;;;;;;2.14;100.00;100747.92;1634047;87;21145;-79
2021/11/12 06:39:02;;;;;;;18.50;8.63;;;;;;;2.21;100.00;100735.05;1637216;87;21061;-78
2021/11/12 06:49:39;;;;;;;11.20;7.00;;;;;;;2.75;100.00;100716.80;1699700;84;21077;-73
2021/11/12 06:52:06;;;;;;;16.63;7.97;;;;;;;2.90;100.00;100715.73;1683892;84;21116;-75
2021/11/12 06:54:32;;;;;;;13.37;7.07;;;;;;;3.09;100.00;100709.98;1669804;84;21084;-77
2021/11/12 06:56:59;;;;;;;16.57;8.20;;;;;;;3.27;100.00;100707.84;1700649;84;21041;-76
2021/11/12 06:59:26;;;;;;;16.00;7.77;;;;;;;3.46;100.00;100700.72;1699031;84;21021;-75
2021/11/12 07:01:53;;;;;;;14.10;7.40;;;;;;;3.65;100.00;100698.92;1703805;83;21626;-75
2021/11/12 07:04:21;;;;;;;17.73;9.20;;;;;;;3.78;100.00;100701.56;1734509;82;21017;-73
2021/11/12 07:06:48;;;;;;;13.57;7.33;;;;;;;3.93;100.00;100698.24;1724870;83;21130;-74
2021/11/12 07:09:17;;;;;;;15.43;8.10;;;;;;;4.08;100.00;100694.45;1722320;82;21506;-79
2021/11/12 07:11:44;;;;;;;14.20;7.30;;;;;;;4.25;100.00;100687.86;1716722;83;21535;-74
2021/11/12 07:14:13;;;;;;;12.80;6.90;;;;;;;4.42;100.00;100681.72;1709018;83;21041;-78
2021/11/12 07:16:40;;;;;;;11.27;6.80;;;;;;;4.55;100.00;100668.63;1709337;82;21578;-75
2021/11/12 07:19:07;;;;;;;11.97;6.90;;;;;;;4.67;100.00;100664.13;1683792;84;21090;-74
2021/11/12 07:21:34;;;;;;;12.53;7.20;;;;;;;4.85;100.00;100661.01;1674232;84;21006;-76
2021/11/12 07:24:01;;;;;;;15.17;7.67;;;;;;;5.01;100.00;100653.97;1693863;83;21115;-75
2021/11/12 07:26:30;;;;;;;18.00;9.83;;;;;;;5.17;100.00;100649.59;1682902;83;21050;-77
2021/11/12 07:28:57;;;;;;;19.30;10.97;;;;;;;5.18;100.00;100648.14;1703428;82;21104;-78
2021/11/12 07:31:25;;;;;;;18.97;9.97;;;;;;;5.22;100.00;100638.02;1701490;82;21049;-75
2021/11/12 07:33:58;;;;;;;17.30;8.10;;;;;;;5.23;100.00;100629.86;1696379;83;21102;-76
2021/11/12 07:36:24;;;;;;;16.47;7.73;;;;;;;5.28;100.00;100631.69;1702927;83;21054;-75
2021/11/12 07:38:54;;;;;;;14.67;8.17;;;;;;;5.37;100.00;100623.90;1689759;83;21059;-73
2021/11/12 07:41:53;;;;;;;14.73;7.60;;;;;;;5.43;100.00;100628.75;1684745;84;21074;-72
2021/11/12 07:49:12;;;;;;;21.13;10.23;;;;;;;5.81;100.00;100616.75;1684571;83;21033;-77
2021/11/12 07:51:41;;;;;;;18.30;10.53;;;;;;;5.83;100.00;100616.97;1714864;81;21056;-75
2021/11/12 07:54:08;;;;;;;23.83;14.33;;;;;;;5.82;100.00;100606.36;1741069;80;21120;-76
2021/11/12 07:56:37;;;;;;;24.30;13.40;;;;;;;5.77;100.00;100594.68;1739558;82;21057;-76
2021/11/12 07:59:05;;;;;;;21.57;12.03;;;;;;;5.77;100.00;100607.22;1730860;81;21015;-72
2021/11/12 08:01:32;;;;;;;22.23;13.57;;;;;;;5.82;100.00;100595.63;1739948;81;21108;-73
2021/11/12 08:04:02;;;;;;;24.90;13.13;;;;;;;5.96;100.00;100604.75;1731569;81;21054;-74
2021/11/12 08:06:30;;;;;;;17.93;10.00;;;;;;;6.16;100.00;100588.81;1728638;81;21556;-73
2021/11/12 08:14:08;;;;;;;19.63;12.23;;;;;;;6.59;100.00;100573.08;1600800;88;21600;-72
2021/11/12 08:16:49;;;;;;;19.43;12.33;;;;;;;6.68;100.00;100572.28;1612800;87;21078;-79
2021/11/12 08:21:57;;;;;;;17.27;9.77;;;;;;;6.83;100.00;100562.02;1519676;93;21139;-78
2021/11/12 08:29:53;;;;;;;22.07;13.00;;;;;;;7.32;100.00;100550.12;1471870;96;21337;-75
2021/11/12 08:32:29;;;;;;;21.20;13.17;;;;;;;7.31;100.00;100554.66;1471009;95;21099;-73
2021/11/12 08:35:13;;;;;;;27.80;13.87;;;;;;;7.30;100.00;100557.48;1484965;95;21128;-72
2021/11/12 08:42:51;;;;;;;16.53;9.77;;;;;;;7.70;100.00;100541.27;1458250;96;21130;-73
2021/11/12 08:45:24;;;;;;;17.27;10.30;;;;;;;7.77;100.00;100534.80;1463727;97;21246;-75
2021/11/12 08:47:53;;;;;;;20.40;9.60;;;;;;;7.89;100.00;100505.41;1478563;96;21077;-74
2021/11/12 08:50:20;;;;;;;19.27;11.97;;;;;;;7.93;100.00;100533.77;1483953;93;21151;-73
2021/11/12 08:52:51;;;;;;;14.47;8.27;;;;;;;8.08;100.00;100526.60;1527287;93;21612;-71
2021/11/12 08:55:25;;;;;;;16.87;9.77;;;;;;;8.32;100.00;100524.30;1509918;93;21101;-75
2021/11/12 08:57:48;;;;;;;14.77;7.67;;;;;;;8.60;100.00;100519.51;1496756;95;21108;-75
2021/11/12 09:00:15;;;;;;;17.30;9.10;;;;;;;8.74;100.00;100506.90;1490179;95;21217;-74
2021/11/12 09:02:42;;;;;;;14.57;7.10;;;;;;;8.80;100.00;100510.84;1523393;93;21460;-72
2021/11/12 09:05:09;;;;;;;14.07;7.87;;;;;;;8.83;100.00;100499.77;1517638;93;21373;-75
2021/11/12 09:07:36;;;;;;;18.87;9.77;;;;;;;8.77;100.00;100505.77;1520780;90;21160;-72
2021/11/12 09:10:04;;;;;;;12.67;7.27;;;;;;;8.77;100.00;100505.27;1601301;87;21050;-72
2021/11/12 09:12:33;;;;;;;15.23;7.73;;;;;;;8.86;100.00;100506.22;1603251;88;21084;-71
2021/11/12 09:15:01;;;;;;;11.70;7.20;;;;;;;8.91;100.00;100506.13;1598276;87;21141;-72
2021/11/12 09:17:29;;;;;;;10.80;5.77;;;;;;;9.05;100.00;100488.59;1632124;82;21087;-74
2021/11/12 09:20:00;;;;;;;14.00;8.53;;;;;;;9.16;100.00;100496.14;1742275;81;20987;-73
2021/11/12 09:22:31;;;;;;;19.87;10.87;;;;;;;9.00;100.00;100476.56;1746579;80;21527;-75
2021/11/12 09:24:59;;;;;;;23.63;13.00;;;;;;;8.92;100.00;100479.99;1761424;80;21200;-74
2021/11/12 09:27:27;;;;;;;25.47;14.90;;;;;;;8.97;100.00;100458.81;1750958;80;21074;-72
2021/11/12 09:29:53;;;;;;;24.90;13.17;;;;;;;8.89;100.00;100462.28;1737135;81;21049;-73
2021/11/12 09:32:20;;;;;;;18.53;11.63;;;;;;;8.91;100.00;100464.31;1762538;81;21055;-74
2021/11/12 09:34:47;;;;;;;23.60;12.90;;;;;;;9.03;100.00;100464.10;1764312;80;21045;-75
2021/11/12 09:37:21;;;;;;;20.10;10.57;;;;;;;9.15;100.00;100458.84;1759180;80;21073;-74
2021/11/12 09:39:57;;;;;;;23.47;13.08;;;;;;;9.10;100.00;100460.67;1752641;81;21027;-73
2021/11/12 09:42:28;;;;;;;17.70;10.43;;;;;;;8.84;100.00;100457.83;1671408;84;21124;-77
2021/11/12 09:44:57;;;;;;;18.67;10.87;;;;;;;8.69;100.00;100456.14;1670200;84;21598;-73
2021/11/12 09:49:56;;;;;;;19.43;10.87;;;;;;;8.66;100.00;100452.89;1644346;85;21090;-71
2021/11/12 09:52:24;;;;;;;18.63;11.10;;;;;;;8.76;100.00;100454.17;1641938;85;21140;-74
2021/11/12 09:54:52;;;;;;;21.93;12.27;;;;;;;8.89;100.00;100464.97;1643297;85;21117;-74
2021/11/12 09:57:19;;;;;;;22.50;12.30;;;;;;;9.10;100.00;100449.01;1688877;84;21010;-73
2021/11/12 09:59:56;;;;;;;16.10;9.93;;;;;;;9.21;100.00;100449.33;1686742;84;21548;-71
2021/11/12 10:02:27;;;;;;;20.07;10.27;;;;;;;9.22;100.00;100445.61;1642621;86;21109;-72
2021/11/12 10:04:54;;;;;;;19.70;11.27;;;;;;;9.14;100.00;100445.03;1641727;87;21055;-79
2021/11/12 10:07:22;;;;;;;19.60;11.87;;;;;;;9.06;100.00;100441.72;1645689;86;21042;-76
2021/11/12 10:10:09;;;;;;;19.83;10.70;;;;;;;9.05;100.00;100446.78;1633431;87;21079;-75
2021/11/12 10:12:47;;;;;;;15.87;10.20;;;;;;;9.15;100.00;100444.01;1645546;86;21085;-74
2021/11/12 10:15:29;;;;;;;20.37;13.07;;;;;;;9.25;100.00;100441.27;1579684;89;21152;-70
2021/11/12 10:17:55;;;;;;;21.30;11.10;;;;;;;9.31;100.00;100441.98;1592803;89;21051;-73
2021/11/12 10:20:23;;;;;;;20.50;11.57;;;;;;;9.46;100.00;100429.66;1601138;88;21095;-71
2021/11/12 10:22:51;;;;;;;26.43;18.33;;;;;;;9.58;100.00;100420.84;1590927;90;21612;-74
2021/11/12 10:25:18;;;;;;;20.00;11.33;;;;;;;9.73;100.00;100408.97;1604368;88;21049;-76
2021/11/12 10:27:51;;;;;;;20.33;11.00;;;;;;;9.86;100.00;100408.07;1596116;89;21061;-71
2021/11/12 10:30:26;;;;;;;19.53;8.97;;;;;;;9.96;100.00;100401.72;1617361;88;21578;-76
2021/11/12 10:32:57;;;;;;;13.50;7.77;;;;;;;10.03;100.00;100393.31;1609040;88;21108;-75
2021/11/12 10:35:28;;;;;;;23.42;13.13;;;;;;;10.14;100.00;100392.20;1593791;90;21109;-76
2021/11/12 10:38:08;;;;;;;19.37;10.73;;;;;;;10.31;100.00;100395.38;1593501;90;21077;-74
2021/11/12 10:40:35;;;;;;;19.57;11.17;;;;;;;10.46;100.00;100392.91;1598943;89;21086;-74
2021/11/12 10:43:03;;;;;;;21.47;12.43;;;;;;;10.38;100.00;100388.31;1605297;89;21072;-71
2021/11/12 10:45:34;;;;;;;16.80;9.88;;;;;;;10.37;100.00;100387.96;1583695;90;21544;-72
2021/11/12 10:48:06;;;;;;;20.52;13.48;;;;;;;10.45;100.00;100383.95;1563857;90;21086;-72
2021/11/12 10:50:36;;;;;;;20.08;11.05;;;;;;;10.63;100.00;100385.21;1579857;88;21651;-72
2021/11/12 10:53:08;;;;;;;15.93;7.83;;;;;;;10.74;100.00;100388.64;1621769;87;21193;-73
2021/11/12 10:55:36;;;;;;;17.57;11.55;;;;;;;10.74;100.00;100396.75;1616221;87;21092;-72
2021/11/12 11:00:42;;;;;;;16.30;10.32;;;;;;;10.76;100.00;100390.67;1625701;86;21069;-75
2021/11/12 11:03:21;;;;;;;15.58;9.08;;;;;;;10.75;100.00;100380.88;1626431;86;21010;-74
2021/11/12 11:06:02;;;;;;;17.70;9.70;;;;;;;10.71;100.00;100379.01;1645646;86;21531;-77
2021/11/12 11:08:34;;;;;;;14.95;8.30;;;;;;;10.60;100.00;100377.94;1640952;86;21188;-73
2021/11/12 11:11:04;;;;;;;21.15;12.70;;;;;;;10.60;100.00;100377.42;1643305;86;21019;-74
2021/11/12 11:13:37;;;;;;;15.50;10.03;;;;;;;10.61;100.00;100370.17;1760637;80;21772;-77
2021/11/12 11:18:54;;;;;;;38.20;21.60;;;;;;;10.45;100.00;100368.25;1653315;86;21126;-72
2021/11/12 11:26:47;;;;;;;19.77;11.12;;;;;;;10.46;100.00;100373.98;1569234;90;21026;-72
2021/11/12 11:29:21;;;;;;;29.70;21.97;;;;;;;10.52;100.00;100376.56;1574605;90;21080;-74
2021/11/12 11:31:52;;;;;;;16.97;9.53;;;;;;;10.60;100.00;100374.71;1531607;92;21073;-74
2021/11/12 11:34:20;;;;;;;12.85;7.58;;;;;;;10.72;100.00;100372.56;1548140;92;21109;-74
2021/11/12 11:36:47;;;;;;;22.67;15.38;;;;;;;10.82;100.00;100374.63;1562141;90;21068;-73
2021/11/12 11:39:17;;;;;;;19.60;11.03;;;;;;;10.90;100.00;100367.04;1551450;91;21112;-72
2021/11/12 11:41:44;;;;;;;16.02;9.70;;;;;;;10.92;100.00;100367.71;1549931;92;21064;-72
2021/11/12 11:44:16;;;;;;;20.32;12.25;;;;;;;10.90;100.00;100363.50;1547069;92;21106;-71
2021/11/12 11:46:45;;;;;;;19.85;11.85;;;;;;;10.85;100.00;100372.61;1550571;91;21035;-72
2021/11/12 11:49:16;;;;;;;21.87;15.23;;;;;;;10.79;100.00;100364.14;1554787;92;21116;-72
2021/11/12 11:52:00;;;;;;;26.62;17.35;;;;;;;10.77;100.00;100359.41;1526331;92;21570;-71
2021/11/12 11:54:34;;;;;;;18.25;10.58;;;;;;;10.93;100.00;100363.17;1528113;92;21102;-71
2021/11/12 11:57:11;;;;;;;22.05;13.35;;;;;;;11.37;100.00;100368.31;1512092;92;21120;-70
2021/11/12 11:59:40;;;;;;;23.38;14.73;;;;;;;11.47;100.00;100358.14;1561242;91;21100;-72
2021/11/12 12:02:19;;;;;;;23.22;16.32;;;;;;;11.63;100.00;100357.81;1551506;91;21081;-71
2021/11/12 12:04:50;;;;;;;20.92;13.38;;;;;;;11.86;100.00;100364.20;1548043;88;21120;-73
2021/11/12 12:07:22;;;;;;;25.82;13.62;;;;;;;11.99;100.00;100365.58;1524978;91;21060;-71
2021/11/12 12:10:19;;;;;;;20.23;12.60;;;;;;;12.18;100.00;100363.00;1517171;93;21111;-72
2021/11/12 12:12:49;;;;;;;33.55;23.95;;;;;;;12.23;100.00;100364.68;1537362;91;21598;-71
2021/11/12 12:15:27;;;;;;;23.32;15.30;;;;;;;12.14;100.00;100355.72;1585461;88;21067;-71
2021/11/12 12:18:14;;;;;;;21.37;12.45;;;;;;;12.23;100.00;100360.62;1585049;88;21034;-70
2021/11/12 12:20:59;;;;;;;28.23;18.50;;;;;;;12.30;100.00;100355.67;1548108;91;21561;-71
2021/11/12 12:35:04;;;;;;;26.37;17.37;;;;;;;12.75;100.00;100357.86;1550675;91;21051;-73
2021/11/12 13:25:59;;;;;;;24.05;15.40;;;;;;;10.20;100.00;100374.02;1467935;95;21626;-72
2021/11/12 13:28:41;;;;;;;22.45;13.60;;;;;;;10.14;100.00;100367.38;1490672;95;21125;-71
2021/11/12 13:31:18;;;;;;;29.15;18.98;;;;;;;9.96;100.00;100369.30;1400875;101;21605;-73
2021/11/12 13:33:50;;;;;;;36.30;22.02;;;;;;;9.72;100.00;100362.73;1407078;101;21187;-73
2021/11/12 13:36:37;;;;;;;55.98;29.40;;;;;;;9.54;100.00;100368.65;1411616;99;21101;-72
2021/11/12 13:41:54;;;;;;;59.42;34.73;;;;;;;9.33;100.00;100375.23;1426150;99;21656;-70
2021/11/12 13:44:25;;;;;;;36.73;24.63;;;;;;;9.12;100.00;100380.43;1453995;98;21632;-69
2021/11/12 13:46:59;;;;;;;29.40;22.58;;;;;;;8.97;100.00;100382.45;1410009;100;21255;-70
2021/11/12 13:49:36;;;;;;;32.73;21.07;;;;;;;8.81;100.00;100385.31;1418926;99;21658;-70
2021/11/12 13:52:11;;;;;;;28.70;17.12;;;;;;;8.63;100.00;100392.02;1414226;100;21192;-69
2021/11/12 13:54:55;;;;;;;34.93;18.23;;;;;;;8.45;100.00;100391.12;1432534;99;21084;-69
2021/11/12 13:57:27;;;;;;;39.63;21.60;;;;;;;8.26;100.00;100392.85;1429487;99;21177;-71
2021/11/12 14:00:06;;;;;;;35.80;19.03;;;;;;;8.15;100.00;100399.78;1434524;99;21156;-70
2021/11/12 14:03:04;;;;;;;33.83;18.97;;;;;;;8.01;100.00;100397.05;1439045;99;21102;-70
2021/11/12 14:05:29;;;;;;;26.70;14.93;;;;;;;7.85;100.00;100400.34;1421097;99;21099;-70
2021/11/12 14:08:08;;;;;;;22.30;13.30;;;;;;;7.72;100.00;100406.52;1421232;99;21052;-69
2021/11/12 14:10:44;;;;;;;22.80;13.83;;;;;;;7.64;100.00;100409.09;1456198;96;21169;-69
2021/11/12 14:13:14;;;;;;;25.93;14.53;;;;;;;7.55;100.00;100413.48;1461665;96;22861;-69
2021/11/12 14:16:15;;;;;;;24.73;15.40;;;;;;;7.46;100.00;100412.50;1445959;97;21123;-70
2021/11/12 14:35:19;;;;;;;25.43;13.60;;;;;;;6.79;100.00;100423.52;1452769;98;21151;-70
2021/11/12 14:40:36;;;;;;;24.33;15.00;;;;;;;6.66;100.00;100431.83;1440297;99;21236;-71
2021/11/12 14:43:24;;;;;;;53.40;35.53;;;;;;;6.59;100.00;100438.23;1442554;95;21272;-73
2021/11/12 14:45:56;;;;;;;36.65;21.93;;;;;;;6.50;100.00;100435.02;1500469;95;21142;-71
2021/11/12 14:51:03;;;;;;;35.03;18.00;;;;;;;6.34;100.00;100438.20;1465563;96;21100;-70
2021/11/12 14:53:37;;;;;;;40.07;22.73;;;;;;;6.30;100.00;100443.46;1396534;101;21678;-70
2021/11/12 14:58:46;;;;;;;41.23;21.17;;;;;;;6.19;100.00;100447.08;1371722;103;20458;-71
2021/11/12 15:01:18;;;;;;;38.80;23.23;;;;;;;6.13;100.00;100450.81;1371546;103;21280;-71
2021/11/12 15:03:46;;;;;;;31.97;21.00;;;;;;;6.07;100.00;100453.51;1378204;103;21115;-69
2021/11/12 15:06:18;;;;;;;35.67;18.83;;;;;;;6.01;100.00;100454.89;1370921;104;22420;-71
2021/11/12 15:11:12;;;;;;;35.80;19.63;;;;;;;5.90;100.00;100454.44;1380150;104;21634;-71
2021/11/12 15:13:40;;;;;;;31.67;17.97;;;;;;;5.86;100.00;100468.23;1379812;98;21233;-72
2021/11/12 15:16:14;;;;;;;28.20;16.53;;;;;;;5.79;100.00;100461.22;1480271;96;21080;-71
2021/11/12 15:18:36;;;;;;;27.37;14.87;;;;;;;5.75;100.00;100474.52;1471959;97;21141;-73
2021/11/12 15:21:08;;;;;;;22.93;14.00;;;;;;;5.69;100.00;100482.59;1464904;97;21151;-72
2021/11/12 15:29:07;;;;;;;28.37;15.00;;;;;;;5.58;100.00;100484.00;1497199;95;21395;-72
2021/11/12 15:34:18;;;;;;;26.47;15.93;;;;;;;5.57;100.00;100490.83;1480978;97;21264;-72
2021/11/12 15:39:19;;;;;;;29.90;20.53;;;;;;;5.54;100.00;100491.08;1479971;97;21123;-73
2021/11/12 15:44:20;;;;;;;32.73;22.60;;;;;;;5.52;100.00;100507.30;1478765;95;21191;-72
2021/11/12 15:46:50;;;;;;;31.37;20.53;;;;;;;5.49;100.00;100501.70;1473507;96;21163;-73
2021/11/12 15:49:22;;;;;;;33.07;24.07;;;;;;;5.48;100.00;100501.83;1486360;92;21539;-72
2021/11/12 15:51:59;;;;;;;29.43;18.77;;;;;;;5.44;100.00;100502.57;1555969;87;21047;-72
2021/11/12 15:54:30;;;;;;;27.37;18.27;;;;;;;5.42;100.00;100505.00;1620525;87;21046;-72
2021/11/12 15:57:05;;;;;;;29.80;18.47;;;;;;;5.37;100.00;100507.23;1614996;88;21085;-71
2021/11/12 15:59:29;;;;;;;33.27;20.00;;;;;;;5.33;100.00;100520.05;1622002;88;21716;-73
2021/11/12 16:02:21;;;;;;;28.95;20.72;;;;;;;5.28;100.00;100517.73;1625953;87;21033;-72
2021/11/12 16:09:51;;;;;;;26.80;18.87;;;;;;;5.13;100.00;100525.67;1620494;87;21068;-72
2021/11/12 16:15:00;;;;;;;26.50;16.03;;;;;;;5.06;100.00;100526.64;1578081;90;21085;-71
2021/11/12 16:17:44;;;;;;;28.70;18.70;;;;;;;5.04;100.00;100527.27;1579707;90;21425;-74
2021/11/12 16:25:37;;;;;;;27.33;17.70;;;;;;;4.93;100.00;100533.48;1580715;90;21096;-72
2021/11/12 16:28:05;;;;;;;25.97;16.10;;;;;;;4.91;100.00;100530.08;1590434;90;21099;-73
2021/11/12 16:30:35;;;;;;;26.10;16.97;;;;;;;4.89;100.00;100532.03;1528549;92;21135;-71
2021/11/12 16:33:04;;;;;;;29.07;16.50;;;;;;;4.89;100.00;100536.55;1514312;93;21071;-73
2021/11/12 16:35:34;;;;;;;34.77;19.37;;;;;;;4.88;100.00;100534.34;1546524;90;21056;-72
2021/11/12 16:38:06;;;;;;;36.03;20.57;;;;;;;4.88;100.00;100537.02;1607825;88;21617;-72
2021/11/12 16:40:35;;;;;;;41.43;22.37;;;;;;;4.86;100.00;100537.63;1599267;89;21032;-70
2021/11/12 16:48:38;;;;;;;39.77;21.03;;;;;;;4.84;100.00;100552.98;1602121;89;21147;-71
2021/11/12 16:58:59;;;;;;;32.57;19.17;;;;;;;4.68;100.00;100555.17;1634860;87;21042;-70
2021/11/12 17:04:04;;;;;;;30.40;17.87;;;;;;;4.62;100.00;100553.84;1666337;86;21074;-72
2021/11/12 17:19:40;;;;;;;28.73;17.50;;;;;;;4.45;100.00;100562.33;1684291;84;21073;-72
2021/11/12 17:46:56;;;;;;;31.43;20.40;;;;;;;4.46;100.00;100580.95;1747480;82;21038;-72
2021/11/12 18:02:54;;;;;;;25.97;14.93;;;;;;;4.42;100.00;100597.36;1781340;80;21011;-71